East Dubuque, IL (61025)

7:48 PM CDT on August 27, 2016 (GMT -0500)
Historic Federal Building | | Change Station

Elev 653 ft 42.50 °N, 90.67 °W | Updated 1 minute ago

Clear
Clear
75.4 °F
Feels Like 76 °F
N
0.0
Wind Variable Wind from SSW
Gusts 4.0 mph

Today
High -- | Low -- °F
--% Chance of Precip.
Yesterday
High -- | Low -- °F
Precip. -- in
Pressure 30.03 in
Visibility 10.0 miles
Clouds Clear
Heat Index 76 °F
Dew Point 70 °F
Humidity 83%
Rainfall 1.07 in
Snow Depth Not available.
6:22 AM 7:43 PM
Waning Crescent, 20% visible
METAR KDBQ 272353Z 28005KT 10SM CLR 24/20 A3004 RMK AO2 SLP167 T02440200 10256 20222 51007 $
Pressure 30.03 in
Visibility 10.0 miles
Clouds Clear
Heat Index 76 °F
Dew Point 70 °F
Humidity 83%
Rainfall 1.07 in
Snow Depth Not available.
6:22 AM 7:43 PM
Waning Crescent, 20% visible
METAR KDBQ 272353Z 28005KT 10SM CLR 24/20 A3004 RMK AO2 SLP167 T02440200 10256 20222 51007 $

10-Day Weather Forecast

Almanac

Astronomy

Aug. 27, 2016 Rise Set
Actual Time
Civil Twilight
Nautical Twilight
Astronomical Twilight
Moon
Length of Visible Light
Length of Day
Tomorrow will be .
, % of the Moon is Illuminated

Today's Extremes

State Highs State Lows

Community

WunderPhotos

Upload Photos

1,935,475 photos uploaded!

WunderBlog® & News

Nearby

Air Quality

  Air Quality AQ Index Pollutant
Not available.

Snow Depth

Station Depth Elevation

Earthquake Activity

City Distance Mag. Time & Date
Minimum magnitude displayed is 2.5.

Coastal Water Temperatures

Place Temperature

Stations

Nearby Weather Stations

Station Location Temp. Windchill Dew Point Humidity Wind Precip. Elev Updated Type
                   

Watches & Warnings

There are currently no watches in effect.